Pokaż wyniki od 1 do 5 z 5
  1. #1
    Awatar boryfik

    Dołączył
    Jun 2009
    Mieszka w
    Nowy Wiśnicz

    Domyślnie Pomoc w rozszyfrowaniu fragmentu METAR'u


    Polecamy

    Witam serdecznie!
    Czy ktoś z zacnych forumowiczów wie jaką informację niesie ze sobą wytłuszczony poniżej fragment METAR'ów:

    1) EPKK 142000Z 26011KT 4000 -SN BR FEW007 BKN016 01/00 Q1005 R25/29//53

    2) EPRZ 142000Z 26009KT 3000 -SN BR BKN004 00/00 Q1002 R27/2///95

    Czy ma to związek z dzisiejszymi opadami śniegu??

    Pozdrawiam





    ------------------------------------------------------------------------------------------
    Celestron 15x70, TPL 20x80 Canon 350D, Tair 300/4,5, TC 2x


  2. #2
    Awatar wegi

    Dołączył
    Jan 2007
    Mieszka w
    epby

    Domyślnie

    Pomiar hamowania na pasie (w pierwszym przypadku współczynnik hamowania wynosi 53, w drugim hamowanie określane jako dobre).
    Ostatnio edytowane przez wegi ; 14-10-2009 o 23:21
    zapraszam --> www.vlatanie.blog.pl
    ostatnia aktualizacja 6.03.2011

  3. #3
    Awatar boryfik

    Dołączył
    Jun 2009
    Mieszka w
    Nowy Wiśnicz

    Domyślnie

    Dzięki za szybką odpowiedź, czyli dla EPKK: R25 to pas w użyciu, "/" oddziela informacje czy też ma jakieś znaczenie??, następnie "29" czyli woda na pasie i coś jeszcze, czy może stopień pokrycia pasa?? znowu // i na koniec 53, czyli współczynnik hamowania wedle dokładnego pomiaru. Dla EPRZ: R27 - pas 27, /, 2 - woda na pasie, /// - grubość pokrywy nieznacząca lub niemierzalna, 95 - hamowanie dobre.
    Trzyma się to kupy??
    ------------------------------------------------------------------------------------------
    Celestron 15x70, TPL 20x80 Canon 350D, Tair 300/4,5, TC 2x


  4. #4
    Awatar psotter

    Dołączył
    Feb 2007
    Mieszka w
    Polska

    Domyślnie

    Wpisz "MOTNE" w wyszukiwarkę.

  5. #5
    Awatar boryfik

    Dołączył
    Jun 2009
    Mieszka w
    Nowy Wiśnicz

    Domyślnie


    Polecamy

    I wszystko jasne, dzięki, pozdrawiam
    ------------------------------------------------------------------------------------------
    Celestron 15x70, TPL 20x80 Canon 350D, Tair 300/4,5, TC 2x


Uprawnienia umieszczania postów

  • Nie możesz zakładać nowych tematów
  • Nie możesz pisać wiadomości
  • Nie możesz dodawać załączników
  • Nie możesz edytować swoich postów
  •